Date,TemperatureHighF,TemperatureAvgF,TemperatureLowF,DewpointHighF,DewpointAvgF,DewpointLowF,HumidityHigh,HumidityAvg,HumidityLow,PressureMaxIn,PressureMinIn,WindSpeedMaxMPH,WindSpeedAvgMPH,GustSpeedMaxMPH,PrecipitationSumIn
2013-2-1,27.4,21.3,13.7,17.5,11.5,6.4,76,65,59,30.55,30.31,11,3,19,0.00
2013-2-2,40.7,33.6,24.4,34.4,26.7,16.6,90,76,58,30.35,30.11,11,4,19,0.00
2013-2-3,44.7,37.5,29.3,34.2,29.7,24.0,92,74,55,30.17,30.02,10,4,21,0.01
2013-2-4,50.5,42.4,28.7,42.3,34.8,24.3,89,75,50,30.12,29.90,20,6,20,0.05
2013-2-5,57.3,49.6,42.0,44.6,41.4,37.0,94,75,49,30.03,29.91,14,3,14,0.00
2013-2-6,54.2,46.6,33.6,37.7,34.7,31.5,93,64,43,30.25,30.08,10,1,10,0.00
2013-2-7,66.9,53.1,40.1,53.0,43.8,33.3,94,71,55,30.10,29.85,15,2,15,0.46
2013-2-8,53.9,42.9,39.4,52.2,38.7,33.4,94,85,71,30.27,29.89,20,7,20,0.09
2013-2-9,50.0,36.1,32.2,33.3,29.5,27.9,85,78,51,30.37,30.23,6,3,15,0.00
2013-2-11,53.3,44.4,34.2,35.1,32.8,30.4,87,65,45,30.16,30.06,16,3,16,0.48
2013-2-12,49.1,41.3,29.2,36.8,32.8,27.2,94,73,53,30.16,29.83,11,1,11,0.00
2013-2-13,44.2,39.6,37.1,39.1,36.3,34.6,94,88,74,29.98,29.78,18,4,18,0.22
2013-2-14,59.8,46.3,36.3,43.5,38.4,34.2,93,76,47,30.01,29.95,17,5,17,0.00
2013-2-15,48.7,41.0,37.1,38.1,35.2,31.4,91,81,53,30.17,30.01,17,2,17,0.00
2013-2-16,43.0,41.7,40.4,35.8,32.3,26.9,76,69,58,30.08,30.06,15,7,16,0.00
2013-2-17,46.8,44.8,40.7,26.8,24.7,23.5,53,45,40,30.16,30.12,12,5,15,0.00
2013-2-18,61.6,54.5,42.2,45.7,40.2,34.2,79,60,44,30.08,29.75,40,14,40,0.11
2013-2-19,44.6,40.4,34.3,28.2,25.6,22.9,76,56,43,30.17,30.08,22,8,22,1.32
2013-2-20,33.6,29.5,23.9,20.7,18.1,14.8,74,62,53,30.38,30.26,11,2,16,0.00
2013-2-21,39.4,32.7,26.3,38.0,26.7,19.3,95,79,55,30.29,29.83,23,5,23,0.90
2013-2-22,46.7,41.3,33.8,42.4,37.9,30.2,96,88,78,30.06,29.83,18,5,18,0.01
2013-2-23,46.9,34.5,28.0,33.4,28.4,25.5,91,79,55,30.06,29.96,10,1,10,0.00
2013-2-24,51.9,43.0,26.2,31.7,28.5,23.9,91,59,42,30.16,30.02,10,2,12,0.00
2013-2-25,58.3,53.1,38.9,47.0,35.8,28.2,86,53,39,30.07,29.43,25,8,25,0.14
2013-2-26,50.9,45.7,38.3,49.2,42.6,35.6,95,89,78,29.69,29.34,27,8,27,0.61
2013-2-27,39.0,37.9,35.3,35.8,33.2,31.7,90,83,77,29.91,29.69,23,6,23,0.00
2013-2-28,38.2,35.6,33.2,32.7,30.3,27.0,90,81,75,30.06,29.89,15,4,15,0.01